Time;durP1;ratioP1;P1;durP2;ratioP2;P2;SDS_P1;SDS_P2;PMS_P1;PMS_P2;Temp;Humidity;BMP_temperature;BMP_pressure;BME280_temperature;BME280_humidity;BME280_pressure;Samples;Min_cycle;Max_cycle;Signal;HPM_P1;HPM_P2
2021/04/24 00:01:30;;;;;;;;;;;;;;;;;;5025427;28;921;-58
2021/04/24 00:03:56;;;;;;;;;;;;;;;;;;5005140;28;1957;-57
2021/04/24 00:06:22;;;;;;;;;;;;;;;;;;5008433;28;858;-57
2021/04/24 00:08:47;;;;;;;;;;;;;;;;;;5005000;28;1557;-57
2021/04/24 00:11:12;;;;;;;;;;;;;;;;;;5006377;28;889;-57
2021/04/24 00:13:38;;;;;;;;;;;;;;;;;;5005543;28;1208;-57
2021/04/24 00:16:03;;;;;;;;;;;;;;;;;;5005218;28;862;-57
2021/04/24 00:18:29;;;;;;;;;;;;;;;;;;5004960;28;1216;-57
2021/04/24 00:20:54;;;;;;;;;;;;;;;;;;5004143;28;823;-57
2021/04/24 00:23:19;;;;;;;;;;;;;;;;;;5004090;28;1408;-56
2021/04/24 00:25:45;;;;;;;;;;;;;;;;;;5004364;28;1987;-57
2021/04/24 00:28:11;;;;;;;;;;;;;;;;;;5004305;28;1264;-57
2021/04/24 00:30:40;;;;;;;;;;;;;;;;;;5005255;28;890;-57
2021/04/24 00:33:06;;;;;;;;;;;;;;;;;;5005449;28;1217;-57
2021/04/24 00:35:32;;;;;;;;;;;;;;;;;;5005139;28;885;-57
2021/04/24 00:37:57;;;;;;;;;;;;;;;;;;5006521;28;1276;-58
2021/04/24 00:40:22;;;;;;;;;;;;;;;;;;5005450;28;822;-57
2021/04/24 00:42:48;;;;;;;;;;;;;;;;;;5004245;28;1421;-57
2021/04/24 00:45:16;;;;;;;;;;;;;;;;;;5004906;28;1926;-61
2021/04/24 00:47:41;;;;;;;;;;;;;;;;;;5005131;28;1241;-60
2021/04/24 00:50:08;;;;;;;;;;;;;;;;;;5004673;28;834;-61
2021/04/24 00:52:34;;;;;;;;;;;;;;;;;;5014836;28;1215;-60
2021/04/24 00:54:59;;;;;;;;;;;;;;;;;;5005152;28;910;-60
2021/04/24 00:57:25;;;;;;;;;;;;;;;;;;5004640;28;1347;-60
2021/04/24 00:59:50;;;;;;;;;;;;;;;;;;5005441;28;1119;-60
2021/04/24 01:02:16;;;;;;;;;;;;;;;;;;5004019;28;1470;-60
2021/04/24 01:04:42;;;;;;;;;;;;;;;;;;5005882;28;1971;-60
2021/04/24 01:07:08;;;;;;;;;;;;;;;;;;5007422;28;1216;-59
2021/04/24 01:09:34;;;;;;;;;;;;;;;;;;5003565;28;922;-59
2021/04/24 01:11:59;;;;;;;;;;;;;;;;;;5005671;28;1343;-59
2021/04/24 01:14:25;;;;;;;;;;;;;;;;;;5004274;28;1293;-60
2021/04/24 01:16:50;;;;;;;;;;;;;;;;;;5004100;28;1279;-59
2021/04/24 01:19:23;;;;;;;;;;;;;;;;;;5003690;28;1477;-59
2021/04/24 01:21:50;;;;;;;;;;;;;;;;;;5004655;28;1239;-59
2021/04/24 01:24:15;;;;;;;;;;;;;;;;;;5005118;28;2047;-59
2021/04/24 01:26:41;;;;;;;;;;;;;;;;;;5004879;28;1338;-59
2021/04/24 01:29:06;;;;;;;;;;;;;;;;;;5004853;28;926;-59
2021/04/24 01:31:32;;;;;;;;;;;;;;;;;;5004479;28;1220;-59
2021/04/24 01:33:58;;;;;;;;;;;;;;;;;;5006388;28;859;-59
2021/04/24 01:36:23;;;;;;;;;;;;;;;;;;5005225;28;906;-59
2021/04/24 01:38:49;;;;;;;;;;;;;;;;;;5004175;28;1339;-59
2021/04/24 01:41:14;;;;;;;;;;;;;;;;;;5003458;28;842;-59
2021/04/24 01:43:39;;;;;;;;;;;;;;;;;;5003490;28;1897;-59
2021/04/24 01:46:05;;;;;;;;;;;;;;;;;;5003462;28;909;-59
2021/04/24 01:48:30;;;;;;;;;;;;;;;;;;5003963;28;1307;-59
2021/04/24 01:50:56;;;;;;;;;;;;;;;;;;5009286;28;1156;-59
2021/04/24 01:53:22;;;;;;;;;;;;;;;;;;5008401;28;1549;-59
2021/04/24 01:55:49;;;;;;;;;;;;;;;;;;5069523;28;1113;-59
2021/04/24 01:58:16;;;;;;;;;;;;;;;;;;5035959;28;1473;-60
2021/04/24 02:00:55;;;;;;;;;;;;;;;;;;5004874;28;882;-59
2021/04/24 02:03:20;;;;;;;;;;;;;;;;;;5004008;28;1383;-59
2021/04/24 02:05:47;;;;;;;;;;;;;;;;;;5004272;28;1918;-59
2021/04/24 02:08:14;;;;;;;;;;;;;;;;;;5005087;28;1398;-59
2021/04/24 02:10:41;;;;;;;;;;;;;;;;;;5003078;28;838;-58
2021/04/24 02:13:16;;;;;;;;;;;;;;;;;;5003864;28;1359;-59
2021/04/24 02:15:42;;;;;;;;;;;;;;;;;;5004015;28;979;-59
2021/04/24 02:18:08;;;;;;;;;;;;;;;;;;5004459;28;1444;-58
2021/04/24 02:20:34;;;;;;;;;;;;;;;;;;5003331;28;846;-59
2021/04/24 02:22:59;;;;;;;;;;;;;;;;;;5003391;28;1255;-59
2021/04/24 02:25:25;;;;;;;;;;;;;;;;;;5003254;28;1976;-59
2021/04/24 02:27:50;;;;;;;;;;;;;;;;;;5002653;28;1363;-59
2021/04/24 02:30:17;;;;;;;;;;;;;;;;;;5003967;28;807;-58
2021/04/24 02:32:43;;;;;;;;;;;;;;;;;;5003622;28;1271;-59
2021/04/24 02:35:09;;;;;;;;;;;;;;;;;;5003910;28;839;-59
2021/04/24 02:37:35;;;;;;;;;;;;;;;;;;5003958;28;1370;-59
2021/04/24 02:40:01;;;;;;;;;;;;;;;;;;5004360;28;978;-60
2021/04/24 02:42:27;;;;;;;;;;;;;;;;;;5004269;28;1418;-59
2021/04/24 02:44:54;;;;;;;;;;;;;;;;;;5004306;28;1975;-58
2021/04/24 02:47:20;;;;;;;;;;;;;;;;;;5003528;28;1358;-58
2021/04/24 02:49:45;;;;;;;;;;;;;;;;;;5004229;28;851;-59
2021/04/24 02:52:11;;;;;;;;;;;;;;;;;;5013834;28;1261;-59
2021/04/24 02:54:37;;;;;;;;;;;;;;;;;;5003694;28;866;-59
2021/04/24 02:57:03;;;;;;;;;;;;;;;;;;5003129;28;1371;-59
2021/04/24 02:59:29;;;;;;;;;;;;;;;;;;5004083;28;873;-59
2021/04/24 03:01:54;;;;;;;;;;;;;;;;;;5003576;28;1347;-59
2021/04/24 03:04:20;;;;;;;;;;;;;;;;;;5003921;28;1898;-59
2021/04/24 03:06:45;;;;;;;;;;;;;;;;;;5003360;28;1382;-59
2021/04/24 03:09:11;;;;;;;;;;;;;;;;;;5006512;28;792;-59
2021/04/24 03:11:37;;;;;;;;;;;;;;;;;;5002701;28;1398;-59
2021/04/24 03:14:03;;;;;;;;;;;;;;;;;;5004041;28;1177;-59
2021/04/24 03:16:29;;;;;;;;;;;;;;;;;;5004732;28;815;-58
2021/04/24 03:18:54;;;;;;;;;;;;;;;;;;5003723;28;1196;-59
2021/04/24 03:21:23;;;;;;;;;;;;;;;;;;5003657;28;925;-59
2021/04/24 03:23:49;;;;;;;;;;;;;;;;;;5003309;28;1940;-59
2021/04/24 03:26:14;;;;;;;;;;;;;;;;;;5003850;28;838;-59
2021/04/24 03:28:40;;;;;;;;;;;;;;;;;;5004071;28;1439;-58
2021/04/24 03:31:05;;;;;;;;;;;;;;;;;;5003323;28;893;-58
2021/04/24 03:33:31;;;;;;;;;;;;;;;;;;5004332;28;1216;-59
2021/04/24 03:35:56;;;;;;;;;;;;;;;;;;5004135;28;835;-58
2021/04/24 03:38:22;;;;;;;;;;;;;;;;;;5003369;28;1348;-58
2021/04/24 03:40:47;;;;;;;;;;;;;;;;;;5003173;28;940;-59
2021/04/24 03:43:13;;;;;;;;;;;;;;;;;;5005580;28;1213;-59
2021/04/24 03:45:38;;;;;;;;;;;;;;;;;;5007210;28;1909;-59
2021/04/24 03:48:04;;;;;;;;;;;;;;;;;;5006633;28;1359;-59
2021/04/24 03:50:29;;;;;;;;;;;;;;;;;;5081438;28;1033;-58
2021/04/24 03:52:55;;;;;;;;;;;;;;;;;;5016357;28;1211;-59
2021/04/24 03:55:22;;;;;;;;;;;;;;;;;;5005969;28;854;-58
2021/04/24 03:57:49;;;;;;;;;;;;;;;;;;5005864;28;1351;-59
2021/04/24 04:00:15;;;;;;;;;;;;;;;;;;5006484;28;826;-59
2021/04/24 04:03:00;;;;;;;;;;;;;;;;;;5006549;28;1398;-59
2021/04/24 04:05:30;;;;;;;;;;;;;;;;;;5005633;28;1898;-60
2021/04/24 04:07:56;;;;;;;;;;;;;;;;;;5002143;28;1369;-59
2021/04/24 04:10:22;;;;;;;;;;;;;;;;;;5010695;28;1608;-59
2021/04/24 04:12:48;;;;;;;;;;;;;;;;;;5005945;28;1453;-59
2021/04/24 04:15:13;;;;;;;;;;;;;;;;;;5005072;28;831;-59
2021/04/24 04:17:39;;;;;;;;;;;;;;;;;;5004125;28;1548;-59
2021/04/24 04:20:06;;;;;;;;;;;;;;;;;;5002315;28;866;-59
2021/04/24 04:22:31;;;;;;;;;;;;;;;;;;5002627;28;1339;-60
2021/04/24 04:24:57;;;;;;;;;;;;;;;;;;5004412;28;1895;-59
2021/04/24 04:27:22;;;;;;;;;;;;;;;;;;5004010;28;1671;-59
2021/04/24 04:29:48;;;;;;;;;;;;;;;;;;5002669;28;1571;-59
2021/04/24 04:32:13;;;;;;;;;;;;;;;;;;5002782;28;806;-58
2021/04/24 04:34:38;;;;;;;;;;;;;;;;;;5000998;28;1419;-60
2021/04/24 04:37:04;;;;;;;;;;;;;;;;;;5002290;28;1263;-59
2021/04/24 04:39:29;;;;;;;;;;;;;;;;;;5004823;28;905;-58
2021/04/24 04:41:55;;;;;;;;;;;;;;;;;;5000821;28;2370;-59
2021/04/24 04:44:20;;;;;;;;;;;;;;;;;;5003553;28;1975;-59
2021/04/24 04:46:45;;;;;;;;;;;;;;;;;;5002751;28;1412;-59
2021/04/24 04:49:11;;;;;;;;;;;;;;;;;;5002797;28;871;-58
2021/04/24 04:51:36;;;;;;;;;;;;;;;;;;5002842;28;1386;-59
2021/04/24 04:54:02;;;;;;;;;;;;;;;;;;5002163;28;925;-60
2021/04/24 04:56:27;;;;;;;;;;;;;;;;;;5004940;28;1274;-59
2021/04/24 04:58:52;;;;;;;;;;;;;;;;;;5003908;28;894;-59
2021/04/24 05:01:20;;;;;;;;;;;;;;;;;;5003360;28;1367;-59
2021/04/24 05:03:45;;;;;;;;;;;;;;;;;;5002853;28;834;-58
2021/04/24 05:06:10;;;;;;;;;;;;;;;;;;5002340;28;1343;-59
2021/04/24 05:08:36;;;;;;;;;;;;;;;;;;5002553;28;1327;-59
2021/04/24 05:11:02;;;;;;;;;;;;;;;;;;5003158;28;858;-60
2021/04/24 05:13:27;;;;;;;;;;;;;;;;;;5003586;28;1347;-59
2021/04/24 05:15:53;;;;;;;;;;;;;;;;;;5003042;28;854;-58
2021/04/24 05:18:20;;;;;;;;;;;;;;;;;;5001198;28;1288;-59
2021/04/24 05:20:45;;;;;;;;;;;;;;;;;;5002312;28;862;-59
2021/04/24 05:23:10;;;;;;;;;;;;;;;;;;4997844;28;2330;-59
2021/04/24 05:25:36;;;;;;;;;;;;;;;;;;4996797;28;1890;-59
2021/04/24 05:28:01;;;;;;;;;;;;;;;;;;5002631;28;1339;-59
2021/04/24 05:30:26;;;;;;;;;;;;;;;;;;5002287;28;1455;-59
2021/04/24 05:32:52;;;;;;;;;;;;;;;;;;5001995;28;1467;-58
2021/04/24 05:35:17;;;;;;;;;;;;;;;;;;5001262;28;1268;-59
2021/04/24 05:37:43;;;;;;;;;;;;;;;;;;5000202;28;1452;-60
2021/04/24 05:40:09;;;;;;;;;;;;;;;;;;5001606;28;936;-59
2021/04/24 05:42:35;;;;;;;;;;;;;;;;;;5001908;28;1226;-58
2021/04/24 05:45:09;;;;;;;;;;;;;;;;;;5022858;28;1894;-59
2021/04/24 05:47:35;;;;;;;;;;;;;;;;;;5001918;28;1749;-58
2021/04/24 05:50:01;;;;;;;;;;;;;;;;;;5004737;28;1620;-58
2021/04/24 05:52:26;;;;;;;;;;;;;;;;;;4986181;27;1672;-64
2021/04/24 05:54:52;;;;;;;;;;;;;;;;;;4997406;27;1744;-63
2021/04/24 05:57:17;;;;;;;;;;;;;;;;;;4993566;28;1147;-59
2021/04/24 05:59:42;;;;;;;;;;;;;;;;;;5004447;28;1079;-59
2021/04/24 06:02:08;;;;;;;;;;;;;;;;;;5005038;28;870;-59
2021/04/24 06:04:33;;;;;;;;;;;;;;;;;;5048370;28;1976;-59
2021/04/24 06:07:00;;;;;;;;;;;;;;;;;;5092652;28;1114;-59
2021/04/24 06:09:26;;;;;;;;;;;;;;;;;;5030506;28;1177;-60
2021/04/24 06:11:51;;;;;;;;;;;;;;;;;;5029687;28;1223;-60
2021/04/24 06:14:16;;;;;;;;;;;;;;;;;;5029804;28;1065;-59
2021/04/24 06:16:42;;;;;;;;;;;;;;;;;;5027041;27;1786;-62
2021/04/24 06:19:07;;;;;;;;;;;;;;;;;;5059891;28;1439;-60
2021/04/24 06:21:33;;;;;;;;;;;;;;;;;;5003393;28;1733;-59
2021/04/24 06:23:58;;;;;;;;;;;;;;;;;;5005209;28;1981;-59
2021/04/24 06:26:23;;;;;;;;;;;;;;;;;;5005021;28;1305;-59
2021/04/24 06:28:49;;;;;;;;;;;;;;;;;;5004268;28;1098;-59
2021/04/24 06:31:14;;;;;;;;;;;;;;;;;;5002145;28;1597;-59
2021/04/24 06:33:40;;;;;;;;;;;;;;;;;;5032781;28;1445;-59
2021/04/24 06:36:05;;;;;;;;;;;;;;;;;;5106621;28;957;-58
2021/04/24 06:38:31;;;;;;;;;;;;;;;;;;5049931;28;1085;-59
2021/04/24 06:40:56;;;;;;;;;;;;;;;;;;5024644;28;1075;-59
2021/04/24 06:43:22;;;;;;;;;;;;;;;;;;5015240;28;838;-59
2021/04/24 06:45:47;;;;;;;;;;;;;;;;;;5003152;28;1989;-59
2021/04/24 06:48:12;;;;;;;;;;;;;;;;;;5002729;28;1198;-59
2021/04/24 06:50:38;;;;;;;;;;;;;;;;;;5031435;28;1449;-59
2021/04/24 06:53:03;;;;;;;;;;;;;;;;;;5002751;28;1096;-58
2021/04/24 06:55:29;;;;;;;;;;;;;;;;;;5015008;28;1616;-58
2021/04/24 06:57:54;;;;;;;;;;;;;;;;;;5004394;28;823;-58
2021/04/24 07:00:20;;;;;;;;;;;;;;;;;;5003826;28;910;-58
2021/04/24 07:02:45;;;;;;;;;;;;;;;;;;4999653;28;1296;-59
2021/04/24 07:05:12;;;;;;;;;;;;;;;;;;5001927;28;1977;-58
2021/04/24 07:07:37;;;;;;;;;;;;;;;;;;5003607;28;914;-59
2021/04/24 07:10:04;;;;;;;;;;;;;;;;;;5003792;28;850;-59
2021/04/24 07:12:29;;;;;;;;;;;;;;;;;;5003286;28;1048;-58
2021/04/24 07:14:55;;;;;;;;;;;;;;;;;;5003502;28;827;-59
2021/04/24 07:17:20;;;;;;;;;;;;;;;;;;5004434;28;906;-58
2021/04/24 07:19:45;;;;;;;;;;;;;;;;;;5006831;28;910;-59
2021/04/24 07:22:11;;;;;;;;;;;;;;;;;;5005784;28;910;-58
2021/04/24 07:24:36;;;;;;;;;;;;;;;;;;5015119;28;1883;-59
2021/04/24 07:27:02;;;;;;;;;;;;;;;;;;5059418;28;1066;-60
2021/04/24 07:29:27;;;;;;;;;;;;;;;;;;5017902;28;1083;-59
2021/04/24 07:31:53;;;;;;;;;;;;;;;;;;5027047;28;814;-61
2021/04/24 07:34:18;;;;;;;;;;;;;;;;;;5087597;28;1148;-61
2021/04/24 07:36:44;;;;;;;;;;;;;;;;;;5110663;28;798;-60
2021/04/24 07:39:09;;;;;;;;;;;;;;;;;;5110935;28;883;-59
2021/04/24 07:41:34;;;;;;;;;;;;;;;;;;5093051;28;1089;-59
2021/04/24 07:44:00;;;;;;;;;;;;;;;;;;5027561;28;1902;-60
2021/04/24 07:46:26;;;;;;;;;;;;;;;;;;5027208;28;826;-59
2021/04/24 07:48:51;;;;;;;;;;;;;;;;;;5026923;28;961;-61
2021/04/24 07:51:16;;;;;;;;;;;;;;;;;;5026871;28;826;-59
2021/04/24 07:53:42;;;;;;;;;;;;;;;;;;5035993;28;990;-61
2021/04/24 07:56:08;;;;;;;;;;;;;;;;;;5026984;28;1172;-61
2021/04/24 07:58:33;;;;;;;;;;;;;;;;;;5040578;28;1089;-60
2021/04/24 08:00:58;;;;;;;;;;;;;;;;;;5111180;27;814;-61
2021/04/24 08:03:24;;;;;;;;;;;;;;;;;;5110519;28;889;-60
2021/04/24 08:05:49;;;;;;;;;;;;;;;;;;5108319;28;1893;-60
2021/04/24 08:08:14;;;;;;;;;;;;;;;;;;5109765;28;834;-61
2021/04/24 08:10:40;;;;;;;;;;;;;;;;;;5110103;28;850;-62
2021/04/24 08:13:06;;;;;;;;;;;;;;;;;;5108745;28;850;-59
2021/04/24 08:15:32;;;;;;;;;;;;;;;;;;5109817;28;872;-61
2021/04/24 08:17:58;;;;;;;;;;;;;;;;;;5110345;28;919;-58
2021/04/24 08:20:23;;;;;;;;;;;;;;;;;;5110241;28;864;-58
2021/04/24 08:22:49;;;;;;;;;;;;;;;;;;5109648;28;885;-58
2021/04/24 08:25:15;;;;;;;;;;;;;;;;;;5109789;28;1961;-59
2021/04/24 08:27:41;;;;;;;;;;;;;;;;;;5109777;28;834;-58
2021/04/24 08:30:08;;;;;;;;;;;;;;;;;;5109575;28;790;-59
2021/04/24 08:32:33;;;;;;;;;;;;;;;;;;5100194;28;1109;-60
2021/04/24 08:34:58;;;;;;;;;;;;;;;;;;5026764;28;831;-58
2021/04/24 08:37:24;;;;;;;;;;;;;;;;;;5026298;28;838;-58
2021/04/24 08:39:49;;;;;;;;;;;;;;;;;;5025778;28;924;-59
2021/04/24 08:42:15;;;;;;;;;;;;;;;;;;5026015;28;960;-58
2021/04/24 08:44:41;;;;;;;;;;;;;;;;;;5026438;28;1914;-58
2021/04/24 08:47:07;;;;;;;;;;;;;;;;;;5025828;28;882;-59
2021/04/24 08:49:32;;;;;;;;;;;;;;;;;;5025552;28;837;-59
2021/04/24 08:51:58;;;;;;;;;;;;;;;;;;5026797;28;814;-58
2021/04/24 08:54:23;;;;;;;;;;;;;;;;;;5026036;28;677;-59
2021/04/24 08:56:49;;;;;;;;;;;;;;;;;;5025422;28;897;-59
2021/04/24 08:59:15;;;;;;;;;;;;;;;;;;5025230;28;863;-58
2021/04/24 09:01:40;;;;;;;;;;;;;;;;;;5025295;28;875;-58
2021/04/24 09:04:06;;;;;;;;;;;;;;;;;;5025159;28;1897;-59
2021/04/24 09:06:33;;;;;;;;;;;;;;;;;;5025951;28;830;-59
2021/04/24 09:09:00;;;;;;;;;;;;;;;;;;5026393;28;865;-59
2021/04/24 09:11:26;;;;;;;;;;;;;;;;;;5025583;28;905;-58
2021/04/24 09:14:04;;;;;;;;;;;;;;;;;;5025431;28;845;-58
2021/04/24 09:16:29;;;;;;;;;;;;;;;;;;5026127;28;806;-58
2021/04/24 09:18:56;;;;;;;;;;;;;;;;;;5025525;28;798;-59
2021/04/24 09:21:22;;;;;;;;;;;;;;;;;;5024758;28;818;-58
2021/04/24 09:23:48;;;;;;;;;;;;;;;;;;5025028;28;815;-59
2021/04/24 09:26:14;;;;;;;;;;;;;;;;;;5025275;28;2402;-58
2021/04/24 09:28:41;;;;;;;;;;;;;;;;;;5025311;28;917;-58
2021/04/24 09:31:23;;;;;;;;;;;;;;;;;;5025082;28;810;-58
2021/04/24 09:33:51;;;;;;;;;;;;;;;;;;5077895;28;1050;-58
2021/04/24 09:36:17;;;;;;;;;;;;;;;;;;5108556;28;882;-59
2021/04/24 09:38:52;;;;;;;;;;;;;;;;;;5106787;28;1292;-58
2021/04/24 09:41:25;;;;;;;;;;;;;;;;;;5107673;27;818;-58
2021/04/24 09:43:58;;;;;;;;;;;;;;;;;;5108855;28;826;-59
2021/04/24 09:46:25;;;;;;;;;;;;;;;;;;5108309;28;838;-58
2021/04/24 09:49:06;;;;;;;;;;;;;;;;;;5108069;28;908;-58
2021/04/24 09:51:37;;;;;;;;;;;;;;;;;;5097235;28;1259;-58
2021/04/24 09:54:03;;;;;;;;;;;;;;;;;;5108008;28;889;-60
2021/04/24 09:56:28;;;;;;;;;;;;;;;;;;5108420;27;1090;-58
2021/04/24 09:59:01;;;;;;;;;;;;;;;;;;5107985;28;818;-58
2021/04/24 10:01:28;;;;;;;;;;;;;;;;;;5107864;28;988;-58
2021/04/24 10:03:54;;;;;;;;;;;;;;;;;;5107719;28;830;-58
2021/04/24 10:06:23;;;;;;;;;;;;;;;;;;5107525;28;1890;-59
2021/04/24 10:08:49;;;;;;;;;;;;;;;;;;5108030;28;877;-59
2021/04/24 10:11:28;;;;;;;;;;;;;;;;;;5106139;28;914;-60
2021/04/24 10:13:53;;;;;;;;;;;;;;;;;;5107897;28;853;-59
2021/04/24 10:16:39;;;;;;;;;;;;;;;;;;5108303;28;861;-59
2021/04/24 10:19:06;;;;;;;;;;;;;;;;;;5106003;28;1262;-60
2021/04/24 10:21:32;;;;;;;;;;;;;;;;;;5108088;28;854;-61
2021/04/24 10:23:58;;;;;;;;;;;;;;;;;;5108947;28;898;-59
2021/04/24 10:26:24;;;;;;;;;;;;;;;;;;5108238;28;877;-58
2021/04/24 10:28:50;;;;;;;;;;;;;;;;;;5107820;28;874;-58
2021/04/24 10:31:16;;;;;;;;;;;;;;;;;;5106648;28;1170;-59
2021/04/24 10:33:42;;;;;;;;;;;;;;;;;;5059889;28;1113;-60
2021/04/24 10:36:08;;;;;;;;;;;;;;;;;;5024700;28;806;-60
2021/04/24 10:38:33;;;;;;;;;;;;;;;;;;5024756;28;811;-60
2021/04/24 10:40:59;;;;;;;;;;;;;;;;;;5025501;28;874;-59
2021/04/24 10:43:24;;;;;;;;;;;;;;;;;;5024697;28;838;-61
2021/04/24 10:45:50;;;;;;;;;;;;;;;;;;5023928;28;1994;-60
2021/04/24 10:48:26;;;;;;;;;;;;;;;;;;5020772;28;1589;-61
2021/04/24 10:50:51;;;;;;;;;;;;;;;;;;4995859;28;1356;-59
2021/04/24 10:53:18;;;;;;;;;;;;;;;;;;5006596;28;823;-59
2021/04/24 10:55:44;;;;;;;;;;;;;;;;;;5007464;28;835;-59
2021/04/24 10:58:15;;;;;;;;;;;;;;;;;;5007560;28;1253;-59
2021/04/24 11:00:40;;;;;;;;;;;;;;;;;;4987057;28;815;-59
2021/04/24 11:03:05;;;;;;;;;;;;;;;;;;4987677;28;917;-59
2021/04/24 11:05:31;;;;;;;;;;;;;;;;;;4988750;28;1918;-59
2021/04/24 11:08:12;;;;;;;;;;;;;;;;;;4988171;28;854;-61
2021/04/24 11:10:43;;;;;;;;;;;;;;;;;;4987787;28;827;-58
2021/04/24 11:13:13;;;;;;;;;;;;;;;;;;4987678;28;838;-58
2021/04/24 11:15:39;;;;;;;;;;;;;;;;;;4988353;28;914;-58
2021/04/24 11:18:08;;;;;;;;;;;;;;;;;;4988154;28;682;-59
2021/04/24 11:20:52;;;;;;;;;;;;;;;;;;4988076;28;803;-58
2021/04/24 11:23:29;;;;;;;;;;;;;;;;;;4988286;28;890;-58
2021/04/24 11:25:55;;;;;;;;;;;;;;;;;;4987663;28;1967;-58
2021/04/24 11:28:21;;;;;;;;;;;;;;;;;;4987746;28;910;-58
2021/04/24 11:30:55;;;;;;;;;;;;;;;;;;4986565;28;1218;-58
2021/04/24 11:33:30;;;;;;;;;;;;;;;;;;5005217;28;1027;-59
2021/04/24 11:36:26;;;;;;;;;;;;;;;;;;5027052;27;913;-59
2021/04/24 11:38:57;;;;;;;;;;;;;;;;;;5027041;28;933;-58
2021/04/24 11:41:25;;;;;;;;;;;;;;;;;;5026708;28;835;-58
2021/04/24 11:43:51;;;;;;;;;;;;;;;;;;5026532;28;910;-58
2021/04/24 11:46:33;;;;;;;;;;;;;;;;;;5026481;28;1906;-58
2021/04/24 11:49:01;;;;;;;;;;;;;;;;;;5027879;28;905;-58
2021/04/24 11:51:33;;;;;;;;;;;;;;;;;;5026644;28;889;-58
2021/04/24 11:53:59;;;;;;;;;;;;;;;;;;5027512;28;806;-58
2021/04/24 11:56:25;;;;;;;;;;;;;;;;;;5027003;28;873;-58
2021/04/24 11:58:50;;;;;;;;;;;;;;;;;;5038232;28;1238;-59
2021/04/24 12:01:22;;;;;;;;;;;;;;;;;;5025069;28;891;-58
2021/04/24 12:03:48;;;;;;;;;;;;;;;;;;5026073;28;803;-58
2021/04/24 12:06:14;;;;;;;;;;;;;;;;;;5026447;28;1917;-58
2021/04/24 12:08:39;;;;;;;;;;;;;;;;;;5026483;28;897;-58
2021/04/24 12:11:11;;;;;;;;;;;;;;;;;;5026234;28;814;-59
2021/04/24 12:13:36;;;;;;;;;;;;;;;;;;5026679;28;810;-58
2021/04/24 12:16:02;;;;;;;;;;;;;;;;;;5027029;28;858;-59
2021/04/24 12:18:29;;;;;;;;;;;;;;;;;;5026820;28;915;-59
2021/04/24 12:20:55;;;;;;;;;;;;;;;;;;5026403;28;835;-58
2021/04/24 12:23:20;;;;;;;;;;;;;;;;;;5026053;28;926;-59
2021/04/24 12:25:47;;;;;;;;;;;;;;;;;;5025760;28;1956;-59
2021/04/24 12:28:14;;;;;;;;;;;;;;;;;;5026073;28;818;-59
2021/04/24 12:30:41;;;;;;;;;;;;;;;;;;5026565;28;881;-58
2021/04/24 12:33:11;;;;;;;;;;;;;;;;;;5054508;28;1208;-58
2021/04/24 12:35:41;;;;;;;;;;;;;;;;;;5109358;28;874;-58
2021/04/24 12:38:11;;;;;;;;;;;;;;;;;;5110025;28;810;-59
2021/04/24 12:40:53;;;;;;;;;;;;;;;;;;5109744;27;806;-58
2021/04/24 12:43:23;;;;;;;;;;;;;;;;;;5108383;28;909;-58
2021/04/24 12:45:50;;;;;;;;;;;;;;;;;;5109356;28;1914;-58
2021/04/24 12:48:17;;;;;;;;;;;;;;;;;;5109273;28;806;-59
2021/04/24 12:50:44;;;;;;;;;;;;;;;;;;5108990;28;949;-59
2021/04/24 12:53:10;;;;;;;;;;;;;;;;;;5109150;28;870;-58
2021/04/24 12:55:37;;;;;;;;;;;;;;;;;;5109571;28;849;-58
2021/04/24 12:58:07;;;;;;;;;;;;;;;;;;5108947;28;834;-61
2021/04/24 13:00:35;;;;;;;;;;;;;;;;;;5108746;28;905;-62
2021/04/24 13:03:01;;;;;;;;;;;;;;;;;;5109810;27;849;-59
2021/04/24 13:05:30;;;;;;;;;;;;;;;;;;5109159;28;1959;-59
2021/04/24 13:08:09;;;;;;;;;;;;;;;;;;5109207;28;853;-58
2021/04/24 13:10:35;;;;;;;;;;;;;;;;;;5108482;28;830;-58
2021/04/24 13:13:00;;;;;;;;;;;;;;;;;;5109670;28;685;-58
2021/04/24 13:15:36;;;;;;;;;;;;;;;;;;5107811;28;865;-58
2021/04/24 13:18:01;;;;;;;;;;;;;;;;;;5109777;28;853;-58
2021/04/24 13:20:29;;;;;;;;;;;;;;;;;;5108021;28;842;-59
2021/04/24 13:22:55;;;;;;;;;;;;;;;;;;5108851;28;810;-58
2021/04/24 13:25:33;;;;;;;;;;;;;;;;;;5108429;28;1968;-60
2021/04/24 13:27:59;;;;;;;;;;;;;;;;;;5108331;28;942;-58
2021/04/24 13:30:25;;;;;;;;;;;;;;;;;;5108782;28;869;-58
2021/04/24 13:32:56;;;;;;;;;;;;;;;;;;5089122;28;1120;-58
2021/04/24 13:35:38;;;;;;;;;;;;;;;;;;5024049;28;831;-58
2021/04/24 13:38:05;;;;;;;;;;;;;;;;;;5025419;28;819;-60
2021/04/24 13:40:30;;;;;;;;;;;;;;;;;;5025785;28;842;-58
2021/04/24 13:42:55;;;;;;;;;;;;;;;;;;5025165;28;842;-58
2021/04/24 13:45:21;;;;;;;;;;;;;;;;;;5025187;28;1983;-58
2021/04/24 13:47:52;;;;;;;;;;;;;;;;;;5024879;28;822;-58
2021/04/24 13:50:18;;;;;;;;;;;;;;;;;;5025110;28;869;-58
2021/04/24 13:52:44;;;;;;;;;;;;;;;;;;5025420;27;893;-59
2021/04/24 13:55:09;;;;;;;;;;;;;;;;;;5024917;28;806;-58
2021/04/24 13:57:35;;;;;;;;;;;;;;;;;;5024312;28;835;-59
2021/04/24 14:00:01;;;;;;;;;;;;;;;;;;5025515;28;866;-58
2021/04/24 14:02:26;;;;;;;;;;;;;;;;;;5025460;28;866;-58
2021/04/24 14:04:51;;;;;;;;;;;;;;;;;;5035934;28;1965;-59
2021/04/24 14:07:17;;;;;;;;;;;;;;;;;;5008149;28;1649;-58
2021/04/24 14:09:42;;;;;;;;;;;;;;;;;;5005430;28;850;-60
2021/04/24 14:12:11;;;;;;;;;;;;;;;;;;5005157;28;815;-58
2021/04/24 14:14:37;;;;;;;;;;;;;;;;;;5004896;28;803;-59
2021/04/24 14:17:03;;;;;;;;;;;;;;;;;;5005340;28;820;-60
2021/04/24 14:19:28;;;;;;;;;;;;;;;;;;5005834;28;961;-59
2021/04/24 14:21:54;;;;;;;;;;;;;;;;;;4999564;28;1657;-59
2021/04/24 14:24:23;;;;;;;;;;;;;;;;;;4997676;28;1899;-59
2021/04/24 14:26:49;;;;;;;;;;;;;;;;;;4998412;28;1580;-59
2021/04/24 14:29:14;;;;;;;;;;;;;;;;;;5004083;28;1923;-59
2021/04/24 14:31:41;;;;;;;;;;;;;;;;;;5003205;28;1424;-61
2021/04/24 14:34:06;;;;;;;;;;;;;;;;;;5003503;28;1250;-60
2021/04/24 14:36:32;;;;;;;;;;;;;;;;;;5004198;28;1106;-60
2021/04/24 14:38:58;;;;;;;;;;;;;;;;;;5003306;28;1165;-60
2021/04/24 14:41:24;;;;;;;;;;;;;;;;;;5003219;28;1532;-60
2021/04/24 14:43:50;;;;;;;;;;;;;;;;;;4998400;28;1733;-61
2021/04/24 14:46:15;;;;;;;;;;;;;;;;;;4997662;28;1926;-59
2021/04/24 14:48:41;;;;;;;;;;;;;;;;;;5002414;28;807;-59
2021/04/24 14:51:06;;;;;;;;;;;;;;;;;;4993291;28;791;-59
2021/04/24 14:53:32;;;;;;;;;;;;;;;;;;4987455;28;1474;-60
2021/04/24 14:55:57;;;;;;;;;;;;;;;;;;4990624;28;839;-59
2021/04/24 14:58:23;;;;;;;;;;;;;;;;;;4984450;28;814;-60
2021/04/24 15:00:51;;;;;;;;;;;;;;;;;;4984998;28;847;-59
2021/04/24 15:03:17;;;;;;;;;;;;;;;;;;4983356;28;934;-59
2021/04/24 15:05:43;;;;;;;;;;;;;;;;;;4984183;28;1886;-59
2021/04/24 15:08:08;;;;;;;;;;;;;;;;;;4983688;28;1167;-59
2021/04/24 15:10:34;;;;;;;;;;;;;;;;;;4998762;28;1167;-60
2021/04/24 15:13:00;;;;;;;;;;;;;;;;;;4984920;28;854;-59
2021/04/24 15:15:26;;;;;;;;;;;;;;;;;;4983955;28;850;-59
2021/04/24 15:17:51;;;;;;;;;;;;;;;;;;4991516;28;1183;-60
2021/04/24 15:20:21;;;;;;;;;;;;;;;;;;5003066;28;862;-59
2021/04/24 15:22:47;;;;;;;;;;;;;;;;;;5003148;28;886;-59
2021/04/24 15:25:12;;;;;;;;;;;;;;;;;;5002349;28;2199;-59
2021/04/24 15:27:38;;;;;;;;;;;;;;;;;;5002542;28;1092;-59
2021/04/24 15:30:05;;;;;;;;;;;;;;;;;;5002768;28;1384;-60
2021/04/24 15:32:30;;;;;;;;;;;;;;;;;;5005996;28;1253;-59
2021/04/24 15:34:56;;;;;;;;;;;;;;;;;;5004791;28;1797;-59
2021/04/24 15:37:22;;;;;;;;;;;;;;;;;;5061948;28;1189;-59
2021/04/24 15:39:51;;;;;;;;;;;;;;;;;;5013445;28;1137;-59
2021/04/24 15:42:21;;;;;;;;;;;;;;;;;;5010158;28;1741;-60
2021/04/24 15:44:48;;;;;;;;;;;;;;;;;;5018092;28;1902;-59
2021/04/24 15:47:13;;;;;;;;;;;;;;;;;;5006345;28;1178;-59
2021/04/24 15:49:38;;;;;;;;;;;;;;;;;;5005578;28;1548;-60
2021/04/24 15:52:04;;;;;;;;;;;;;;;;;;5005803;28;1137;-62
2021/04/24 15:54:31;;;;;;;;;;;;;;;;;;5110229;28;822;-59
2021/04/24 15:56:56;;;;;;;;;;;;;;;;;;5032733;27;1191;-58
2021/04/24 15:59:21;;;;;;;;;;;;;;;;;;5010694;28;1690;-58
2021/04/24 16:01:47;;;;;;;;;;;;;;;;;;5006500;28;854;-58
2021/04/24 16:04:12;;;;;;;;;;;;;;;;;;5005159;28;1906;-58
2021/04/24 16:06:38;;;;;;;;;;;;;;;;;;5006588;28;1140;-58
2021/04/24 16:09:04;;;;;;;;;;;;;;;;;;5008732;28;1139;-58
2021/04/24 16:11:29;;;;;;;;;;;;;;;;;;5016652;28;1120;-58
2021/04/24 16:13:56;;;;;;;;;;;;;;;;;;5005986;28;1195;-59
2021/04/24 16:16:22;;;;;;;;;;;;;;;;;;5005791;28;1401;-58
2021/04/24 16:18:47;;;;;;;;;;;;;;;;;;5003989;28;1242;-59
2021/04/24 16:21:12;;;;;;;;;;;;;;;;;;5005113;28;1075;-58
2021/04/24 16:23:38;;;;;;;;;;;;;;;;;;5005297;28;1202;-59
2021/04/24 16:26:03;;;;;;;;;;;;;;;;;;5004415;28;1953;-59
2021/04/24 16:28:29;;;;;;;;;;;;;;;;;;5005155;28;1343;-59
2021/04/24 16:30:54;;;;;;;;;;;;;;;;;;5008345;28;2350;-59
2021/04/24 16:33:20;;;;;;;;;;;;;;;;;;5005533;28;1032;-59
2021/04/24 16:35:45;;;;;;;;;;;;;;;;;;5005695;28;862;-59
2021/04/24 16:38:10;;;;;;;;;;;;;;;;;;5005210;28;882;-59
2021/04/24 16:40:36;;;;;;;;;;;;;;;;;;5006447;28;901;-58
2021/04/24 16:43:01;;;;;;;;;;;;;;;;;;5007350;28;1046;-59
2021/04/24 16:45:27;;;;;;;;;;;;;;;;;;5025321;28;1933;-58
2021/04/24 16:47:53;;;;;;;;;;;;;;;;;;5026010;28;861;-58
2021/04/24 16:50:20;;;;;;;;;;;;;;;;;;5010627;28;1540;-58
2021/04/24 16:52:46;;;;;;;;;;;;;;;;;;5005668;28;858;-59
2021/04/24 16:55:12;;;;;;;;;;;;;;;;;;4995179;28;2543;-58
2021/04/24 16:57:37;;;;;;;;;;;;;;;;;;4999246;28;1071;-58
2021/04/24 17:00:04;;;;;;;;;;;;;;;;;;5005139;28;1205;-58
2021/04/24 17:02:29;;;;;;;;;;;;;;;;;;5005414;28;1256;-58
2021/04/24 17:04:55;;;;;;;;;;;;;;;;;;5005082;28;1898;-58
2021/04/24 17:07:20;;;;;;;;;;;;;;;;;;5003942;28;863;-58